Terminal Aerodrome Forecast
Issued by NWS

Home | Current Version | Previous Version | Text Only | Print | Product List | Glossary On
Versions: 1 2 3 4 5 6 7 8 9 10 11 12 13 14
194
FTUS44 KJAN 300607 RRA
TAFHKS
TAF
KHKS 300607Z 3006/0106 16020G30KT P6SM BKN025 OVC035
     FM301400 17015G30KT 5SM TSRA SCT015 BKN025CB OVC050
      TEMPO 3014/3017 3SM +TSRA BKN015CB
     FM301900 20012G20KT P6SM SHRA SCT025 OVC040
     FM010000 20008KT P6SM BKN080=

USA.gov is the U.S. government's official web portal to all federal, state and local government web resources and services.